| time (UTC) | temp F | wind direction | speed MPH | gust MPH | rain 1hr in | rain 24hr in | rain mn in | humidity % | barometer mb |
| 20260502215711 | 62 | 325 | 7.0 | 15.0 | 0.00 | 0.00 | 0.00 | 36 | 1009.7 |
| 20260502214713 | 62 | 229 | 5.0 | 18.0 | 0.00 | 0.00 | 0.00 | 36 | 1009.6 |
| 20260502213712 | 63 | 270 | 6.0 | 19.0 | 0.00 | 0.00 | 0.00 | 37 | 1009.8 |
| 20260502211709 | 63 | 257 | 8.0 | 17.0 | 0.00 | 0.00 | 0.00 | 34 | 1010.2 |
| 20260502210709 | 63 | 234 | 5.0 | 16.0 | 0.00 | 0.00 | 0.00 | 35 | 1010.2 |
| 20260502205710 | 62 | 324 | 3.0 | 9.0 | 0.00 | 0.00 | 0.00 | 35 | 1010.4 |
| 20260502204709 | 63 | 267 | 7.0 | 16.0 | 0.00 | 0.00 | 0.00 | 33 | 1010.7 |
| 20260502203710 | 61 | 227 | 7.0 | 15.0 | 0.00 | 0.00 | 0.00 | 34 | 1010.8 |
| 20260502202710 | 63 | 215 | 7.0 | 19.0 | 0.00 | 0.00 | 0.00 | 32 | 1010.8 |
| 20260502201711 | 64 | 281 | 7.0 | 17.0 | 0.00 | 0.00 | 0.00 | 32 | 1011.1 |
| 20260502200711 | 62 | 262 | 7.0 | 20.0 | 0.00 | 0.00 | 0.00 | 33 | 1011.2 |
| 20260502195710 | 62 | 293 | 5.0 | 13.0 | 0.00 | 0.00 | 0.00 | 33 | 1011.4 |
| 20260502194709 | 62 | 264 | 8.0 | 18.0 | 0.00 | 0.00 | 0.00 | 36 | 1011.6 |
| 20260502193710 | 62 | 194 | 7.0 | 14.0 | 0.00 | 0.00 | 0.00 | 32 | 1011.7 |
| 20260502192711 | 61 | 287 | 5.0 | 16.0 | 0.00 | 0.00 | 0.00 | 34 | 1012.1 |
| 20260502191710 | 63 | 256 | 3.0 | 15.0 | 0.00 | 0.00 | 0.00 | 33 | 1012.1 |
| 20260502190710 | 62 | 308 | 6.0 | 13.0 | 0.00 | 0.00 | 0.00 | 35 | 1012.2 |
| 20260502185710 | 61 | 223 | 5.0 | 14.0 | 0.00 | 0.00 | 0.00 | 33 | 1012.2 |
| 20260502184709 | 61 | 272 | 6.0 | 15.0 | 0.00 | 0.00 | 0.00 | 34 | 1012.5 |
| 20260502183708 | 60 | 351 | 5.0 | 14.0 | 0.00 | 0.00 | 0.00 | 34 | 1012.6 |
| 20260502181706 | 59 | 236 | 7.0 | 13.0 | 0.00 | 0.00 | 0.00 | 35 | 1013.0 |
| 20260502180705 | 59 | 201 | 8.0 | 22.0 | 0.00 | 0.00 | 0.00 | 34 | 1013.4 |
| 20260502163703 | 56 | 242 | 4.0 | 12.0 | 0.00 | 0.00 | 0.00 | 34 | 1014.8 |
| 20260502162703 | 56 | 270 | 5.0 | 12.0 | 0.00 | 0.00 | 0.00 | 36 | 1014.9 |
| 20260502161704 | 55 | 286 | 7.0 | 14.0 | 0.00 | 0.00 | 0.00 | 36 | 1015.0 |
| 20260502151701 | 53 | 238 | 3.0 | 8.0 | 0.00 | 0.00 | 0.00 | 39 | 1015.9 |
| 20260502150700 | 53 | 239 | 2.0 | 9.0 | 0.00 | 0.00 | 0.00 | 40 | 1016.1 |
| 20260502130658 | 35 | 133 | 0.0 | 2.0 | 0.00 | 0.00 | 0.00 | 80 | 1016.9 |
| 20260502123658 | 29 | 130 | 0.0 | 0.0 | 0.00 | 0.00 | 0.00 | 87 | 1016.9 |
| 20260502122657 | 28 | 130 | 0.0 | 0.0 | 0.00 | 0.00 | 0.00 | 87 | 1016.9 |
| 20260502120656 | 27 | 130 | 0.0 | 0.0 | 0.00 | 0.00 | 0.00 | 88 | 1016.9 |
| 20260502115656 | 26 | 130 | 0.0 | 0.0 | 0.00 | 0.00 | 0.00 | 88 | 1017.0 |
| 20260502113656 | 26 | 130 | 0.0 | 0.0 | 0.00 | 0.00 | 0.00 | 87 | 1017.0 |
| 20260502111657 | 25 | 130 | 0.0 | 0.0 | 0.00 | 0.00 | 0.00 | 87 | 1016.9 |
| 20260502110657 | 25 | 130 | 0.0 | 0.0 | 0.00 | 0.00 | 0.00 | 87 | 1017.0 |
| 20260502105656 | 25 | 130 | 0.0 | 0.0 | 0.00 | 0.00 | 0.00 | 87 | 1016.9 |
| 20260502103654 | 25 | 130 | 0.0 | 0.0 | 0.00 | 0.00 | 0.00 | 86 | 1017.0 |
| 20260502102654 | 25 | 130 | 0.0 | 0.0 | 0.00 | 0.00 | 0.00 | 86 | 1017.1 |
| 20260502101654 | 25 | 130 | 0.0 | 2.0 | 0.00 | 0.00 | 0.00 | 85 | 1017.1 |
| 20260502090650 | 26 | 130 | 0.0 | 0.0 | 0.00 | 0.00 | 0.00 | 84 | 1017.1 |
| 20260502070647 | 28 | 135 | 0.0 | 0.0 | 0.00 | 0.00 | 0.00 | 79 | 1017.8 |
| 20260502065644 | 29 | 135 | 0.0 | 0.0 | 0.00 | 0.00 | 0.00 | 79 | 1017.9 |
| 20260502063643 | 29 | 135 | 0.0 | 0.0 | 0.00 | 0.00 | 0.00 | 77 | 1018.0 |
| 20260502062642 | 29 | 135 | 0.0 | 0.0 | 0.00 | 0.00 | 0.00 | 77 | 1017.9 |
| 20260502060642 | 29 | 135 | 0.0 | 0.0 | 0.00 | 0.00 | 0.00 | 76 | 1018.0 |
| 20260502052642 | 31 | 135 | 0.0 | 0.0 | 0.00 | 0.00 | 0.00 | 74 | 1018.1 |
| 20260502051642 | 31 | 135 | 0.0 | 0.0 | 0.00 | 0.00 | 0.00 | 73 | 1018.0 |
| 20260502050642 | 31 | 135 | 0.0 | 0.0 | 0.00 | 0.00 | 0.00 | 73 | 1018.0 |
| 20260502045641 | 31 | 135 | 0.0 | 0.0 | 0.00 | 0.00 | 0.00 | 73 | 1018.0 |
| 20260502044640 | 32 | 135 | 0.0 | 0.0 | 0.00 | 0.00 | 0.00 | 72 | 1018.1 |
| 20260502043640 | 32 | 135 | 0.0 | 0.0 | 0.00 | 0.00 | 0.00 | 71 | 1018.1 |
| 20260502042640 | 32 | 135 | 0.0 | 0.0 | 0.00 | 0.00 | 0.00 | 69 | 1018.1 |
| 20260502041641 | 33 | 135 | 0.0 | 0.0 | 0.00 | 0.00 | 0.00 | 69 | 1018.1 |
| 20260502040640 | 33 | 135 | 0.0 | 0.0 | 0.00 | 0.00 | 0.00 | 69 | 1018.1 |
| 20260502035641 | 34 | 135 | 0.0 | 0.0 | 0.00 | 0.00 | 0.00 | 69 | 1018.1 |
| 20260502034639 | 35 | 135 | 0.0 | 0.0 | 0.00 | 0.00 | 0.00 | 66 | 1018.1 |
| 20260502033635 | 35 | 135 | 0.0 | 0.0 | 0.00 | 0.00 | 0.00 | 64 | 1018.1 |
| 20260502032634 | 36 | 135 | 0.0 | 0.0 | 0.00 | 0.00 | 0.00 | 64 | 1018.1 |
| 20260502030634 | 37 | 135 | 0.0 | 0.0 | 0.00 | 0.00 | 0.00 | 62 | 1018.0 |
| 20260502025633 | 37 | 135 | 0.0 | 0.0 | 0.00 | 0.00 | 0.00 | 60 | 1018.1 |
| 20260502024634 | 38 | 135 | 0.0 | 0.0 | 0.00 | 0.00 | 0.00 | 58 | 1018.1 |
| 20260502023635 | 39 | 135 | 0.0 | 0.0 | 0.00 | 0.00 | 0.00 | 57 | 1018.0 |
| 20260502022635 | 40 | 135 | 0.0 | 1.0 | 0.00 | 0.00 | 0.00 | 56 | 1018.1 |
| 20260502020628 | 41 | 135 | 0.0 | 1.0 | 0.00 | 0.00 | 0.00 | 53 | 1017.9 |
| 20260502012628 | 44 | 143 | 2.0 | 3.0 | 0.00 | 0.00 | 0.00 | 48 | 1017.6 |
| 20260502011630 | 45 | 134 | 2.0 | 8.0 | 0.00 | 0.00 | 0.00 | 47 | 1017.5 |
| 20260502010625 | 45 | 85 | 1.0 | 3.0 | 0.00 | 0.00 | 0.00 | 47 | 1017.4 |
| 20260502004624 | 47 | 138 | 3.0 | 9.0 | 0.00 | 0.00 | 0.00 | 42 | 1017.4 |
| 20260502002625 | 49 | 11 | 2.0 | 10.0 | 0.00 | 0.00 | 0.00 | 34 | 1017.2 |
| 20260502001624 | 50 | 63 | 1.0 | 3.0 | 0.00 | 0.00 | 0.00 | 34 | 1017.1 |
| 20260502000623 | 50 | 46 | 1.0 | 4.0 | 0.00 | 0.00 | 0.00 | 35 | 1017.1 |
| 20260501235623 | 51 | 284 | 2.0 | 5.0 | 0.00 | 0.00 | 0.00 | 34 | 1017.1 |
| 20260501234623 | 51 | 58 | 1.0 | 4.0 | 0.00 | 0.00 | 0.00 | 35 | 1017.0 |
| 20260501233624 | 51 | 5 | 3.0 | 7.0 | 0.00 | 0.00 | 0.00 | 32 | 1017.0 |
| 20260501231623 | 52 | 355 | 2.0 | 5.0 | 0.00 | 0.00 | 0.00 | 34 | 1017.0 |
| 20260501230624 | 52 | 290 | 2.0 | 4.0 | 0.00 | 0.00 | 0.00 | 34 | 1017.1 |
| 20260501225623 | 53 | 62 | 2.0 | 9.0 | 0.00 | 0.00 | 0.00 | 35 | 1017.0 |
| 20260501224624 | 52 | 51 | 2.0 | 6.0 | 0.00 | 0.00 | 0.00 | 32 | 1017.0 |
| 20260501223623 | 51 | 56 | 2.0 | 10.0 | 0.00 | 0.00 | 0.00 | 35 | 1017.1 |
| 20260501222626 | 51 | 344 | 4.0 | 8.0 | 0.00 | 0.00 | 0.00 | 34 | 1017.2 |
| 20260501221624 | 51 | 13 | 2.0 | 6.0 | 0.00 | 0.00 | 0.00 | 33 | 1017.1 |
| 20260501220623 | 53 | 11 | 3.0 | 9.0 | 0.00 | 0.00 | 0.00 | 33 | 1017.1 |